Time;durP1;ratioP1;P1;durP2;ratioP2;P2;SDS_P1;SDS_P2;PMS_P1;PMS_P2;Temp;Humidity;BMP_temperature;BMP_pressure;BME280_temperature;BME280_humidity;BME280_pressure;Samples;Min_cycle;Max_cycle;Signal;HPM_P1;HPM_P2
2023/08/19 00:01:39;;;;;;;12.90;8.10;;;24.50;99.90;;;;;;5072268;28;20522;-70
2023/08/19 00:04:43;;;;;;;14.68;9.38;;;24.40;99.90;;;;;;5072500;28;20047;-70
2023/08/19 00:11:47;;;;;;;14.32;8.65;;;24.40;99.90;;;;;;5072131;28;20047;-69
2023/08/19 00:14:51;;;;;;;10.55;8.73;;;24.30;99.90;;;;;;5072614;28;20407;-69
2023/08/19 00:17:55;;;;;;;11.25;9.55;;;24.30;99.90;;;;;;5072753;28;20407;-69
2023/08/19 00:21:18;;;;;;;14.25;9.35;;;24.30;99.90;;;;;;5071792;28;20071;-70
2023/08/19 00:24:22;;;;;;;14.70;9.45;;;24.30;99.90;;;;;;5071650;28;20048;-69
2023/08/19 00:27:45;;;;;;;10.80;8.85;;;24.10;99.90;;;;;;5072169;28;20051;-69
2023/08/19 00:31:08;;;;;;;17.25;10.23;;;24.10;99.90;;;;;;5072269;28;20048;-69
2023/08/19 00:34:11;;;;;;;15.48;9.23;;;24.10;99.90;;;;;;5072125;28;20043;-70
2023/08/19 00:37:35;;;;;;;12.35;8.70;;;24.00;99.90;;;;;;5061915;28;20044;-69
2023/08/19 00:40:39;;;;;;;12.27;9.20;;;23.90;99.90;;;;;;5071643;28;20052;-70
2023/08/19 00:44:03;;;;;;;13.80;9.25;;;23.90;99.90;;;;;;5071739;28;20043;-69
2023/08/19 00:47:45;;;;;;;20.52;10.02;;;23.90;99.90;;;;;;5072019;28;20047;-70
2023/08/19 00:51:26;;;;;;;12.70;9.38;;;23.80;99.90;;;;;;5071565;28;20522;-69
2023/08/19 00:54:50;;;;;;;15.93;9.85;;;23.70;99.90;;;;;;5059239;28;20048;-69
2023/08/19 00:57:54;;;;;;;17.23;9.88;;;23.70;99.90;;;;;;5071598;28;20044;-70
2023/08/19 01:04:40;;;;;;;16.40;10.23;;;23.50;99.90;;;;;;5071129;28;20071;-69
2023/08/19 01:08:11;;;;;;;14.68;10.10;;;23.50;99.90;;;;;;5079441;28;20047;-70
2023/08/19 01:15:01;;;;;;;12.80;10.07;;;23.40;99.90;;;;;;5091055;28;20051;-69
2023/08/19 01:18:24;;;;;;;13.07;9.52;;;23.30;99.90;;;;;;5091681;28;20383;-69
2023/08/19 01:21:47;;;;;;;14.98;10.43;;;23.30;99.90;;;;;;5091419;28;20039;-70
2023/08/19 01:24:51;;;;;;;12.63;9.45;;;23.40;99.90;;;;;;5091280;28;20047;-70
2023/08/19 01:31:37;;;;;;;14.07;9.90;;;23.40;99.90;;;;;;5090909;28;20509;-69
2023/08/19 01:34:42;;;;;;;15.00;9.80;;;23.40;99.90;;;;;;5078947;28;20390;-69
2023/08/19 01:38:14;;;;;;;15.80;9.88;;;23.40;99.90;;;;;;5078926;28;20119;-69
2023/08/19 01:41:20;;;;;;;12.55;9.77;;;23.40;99.90;;;;;;5091105;28;20046;-70
2023/08/19 01:44:43;;;;;;;14.32;11.13;;;23.40;99.90;;;;;;5091015;28;20046;-69
2023/08/19 01:48:24;;;;;;;15.38;11.23;;;23.30;99.90;;;;;;5090843;28;20047;-69
2023/08/19 01:51:48;;;;;;;16.50;11.45;;;22.70;99.90;;;;;;5090916;28;20039;-69
2023/08/19 01:58:15;;;;;;;20.33;11.57;;;22.30;99.90;;;;;;5091136;28;20043;-70
2023/08/19 02:01:18;;;;;;;17.38;12.48;;;22.20;99.90;;;;;;5078493;28;20047;-69
2023/08/19 02:04:23;;;;;;;13.20;11.00;;;22.10;99.90;;;;;;5090732;28;20043;-69
2023/08/19 02:07:26;;;;;;;18.05;11.70;;;22.10;99.90;;;;;;5090843;28;20043;-69
2023/08/19 02:10:32;;;;;;;14.18;11.23;;;22.10;99.90;;;;;;5081448;28;20043;-70
2023/08/19 02:13:36;;;;;;;15.88;11.07;;;22.00;99.90;;;;;;5094970;28;20115;-69
2023/08/19 02:16:40;;;;;;;21.55;11.95;;;22.00;99.90;;;;;;5094952;28;20516;-69
2023/08/19 02:20:04;;;;;;;13.07;11.07;;;21.90;99.90;;;;;;5095086;28;20039;-70
2023/08/19 02:23:26;;;;;;;17.50;11.65;;;22.00;99.90;;;;;;5094766;28;20122;-70
2023/08/19 02:26:49;;;;;;;17.85;13.32;;;22.00;99.90;;;;;;5094853;28;20046;-69
2023/08/19 02:33:15;;;;;;;17.40;11.70;;;22.00;99.90;;;;;;5094474;28;20043;-70
2023/08/19 02:36:38;;;;;;;20.13;11.43;;;21.90;99.90;;;;;;5094441;28;20039;-70
2023/08/19 02:39:41;;;;;;;16.63;12.68;;;21.90;99.90;;;;;;5094642;28;20054;-69
2023/08/19 02:43:04;;;;;;;22.02;13.30;;;21.80;99.90;;;;;;5081870;28;20047;-69
2023/08/19 02:46:08;;;;;;;19.10;13.38;;;21.80;99.90;;;;;;5094528;28;20063;-69
2023/08/19 02:49:31;;;;;;;20.17;13.40;;;21.80;99.90;;;;;;5094622;28;20050;-69
2023/08/19 02:53:13;;;;;;;19.27;13.18;;;21.70;99.90;;;;;;5094232;28;20047;-69
2023/08/19 02:56:17;;;;;;;16.25;12.55;;;21.70;99.90;;;;;;5094240;28;20055;-69
2023/08/19 02:59:21;;;;;;;15.93;12.80;;;21.70;99.90;;;;;;5094082;28;20082;-69
2023/08/19 03:02:47;;;;;;;16.33;12.90;;;21.60;99.90;;;;;;5083922;28;20059;-69
2023/08/19 03:06:10;;;;;;;16.83;12.68;;;21.60;99.90;;;;;;5094238;28;20388;-69
2023/08/19 03:09:14;;;;;;;16.05;12.02;;;21.60;99.90;;;;;;5094481;28;20039;-70
2023/08/19 03:12:18;;;;;;;15.50;11.75;;;21.70;99.90;;;;;;5093353;28;20474;-69
2023/08/19 03:19:04;;;;;;;25.47;14.30;;;21.70;99.90;;;;;;5093711;28;20043;-69
2023/08/19 03:22:07;;;;;;;22.85;12.60;;;21.70;99.90;;;;;;5079731;28;20059;-69
2023/08/19 03:25:30;;;;;;;21.25;13.57;;;21.70;99.90;;;;;;5081266;28;20051;-69
2023/08/19 03:28:53;;;;;;;18.02;14.18;;;21.60;99.90;;;;;;5093468;28;20043;-70
2023/08/19 03:32:16;;;;;;;20.08;14.65;;;21.40;99.90;;;;;;5093416;28;20043;-69
2023/08/19 03:35:20;;;;;;;21.75;14.55;;;21.40;99.90;;;;;;5081157;28;20505;-69
2023/08/19 03:38:24;;;;;;;24.30;15.25;;;21.40;99.90;;;;;;5080515;28;20035;-69
2023/08/19 03:41:29;;;;;;;20.60;15.13;;;21.30;99.90;;;;;;5092932;28;20043;-69
2023/08/19 03:44:53;;;;;;;21.00;14.43;;;21.30;99.90;;;;;;5080763;28;20069;-69
2023/08/19 03:48:15;;;;;;;18.58;14.70;;;21.30;99.90;;;;;;5093205;28;20043;-69
2023/08/19 03:51:19;;;;;;;27.55;14.77;;;21.30;99.90;;;;;;5080639;28;20042;-69
2023/08/19 03:54:23;;;;;;;25.08;15.07;;;21.20;99.90;;;;;;5080929;28;20051;-70
2023/08/19 03:57:27;;;;;;;24.77;14.50;;;21.20;99.90;;;;;;5080458;28;20043;-69
2023/08/19 04:00:31;;;;;;;23.25;14.25;;;21.20;99.90;;;;;;5092875;28;20179;-69
2023/08/19 04:03:35;;;;;;;18.88;14.10;;;21.20;99.90;;;;;;5080287;28;20039;-69
2023/08/19 04:06:39;;;;;;;17.85;13.18;;;21.20;99.90;;;;;;5080517;28;20066;-69
2023/08/19 04:09:43;;;;;;;17.13;13.15;;;21.20;99.90;;;;;;5092969;28;20055;-69
2023/08/19 04:12:47;;;;;;;18.88;13.68;;;21.20;99.90;;;;;;5092829;28;20043;-69
2023/08/19 04:15:51;;;;;;;20.95;14.68;;;21.10;99.90;;;;;;5093010;28;20035;-69
2023/08/19 04:18:55;;;;;;;27.75;14.48;;;21.10;99.90;;;;;;5080284;28;20051;-70
2023/08/19 04:22:00;;;;;;;22.83;14.25;;;21.10;99.90;;;;;;5080608;28;20051;-69
2023/08/19 04:25:04;;;;;;;15.98;13.32;;;21.10;99.90;;;;;;5080045;28;20051;-69
2023/08/19 04:28:08;;;;;;;22.42;14.45;;;21.10;99.90;;;;;;5092445;28;20039;-69
2023/08/19 04:31:12;;;;;;;18.50;14.23;;;21.10;99.90;;;;;;5092351;28;20059;-69
2023/08/19 04:38:46;;;;;;;19.52;14.48;;;21.10;99.90;;;;;;5092143;28;20042;-69
2023/08/19 04:41:53;;;;;;;19.90;14.20;;;21.10;99.90;;;;;;5079512;28;20386;-69
2023/08/19 04:45:16;;;;;;;20.63;14.05;;;21.10;99.90;;;;;;5079256;28;20526;-69
2023/08/19 04:52:25;;;;;;;18.83;12.98;;;21.20;99.90;;;;;;5091670;28;20043;-69
2023/08/19 04:55:30;;;;;;;22.67;14.27;;;21.20;99.90;;;;;;5079337;28;20054;-69
2023/08/19 05:01:57;;;;;;;24.17;14.57;;;21.20;99.90;;;;;;5078807;28;20047;-69
2023/08/19 05:05:03;;;;;;;20.27;13.77;;;21.30;99.90;;;;;;5079094;28;20039;-69
2023/08/19 05:08:26;;;;;;;22.08;14.18;;;21.40;99.90;;;;;;5091631;28;20395;-69
2023/08/19 05:11:49;;;;;;;19.05;12.85;;;21.50;99.90;;;;;;5091153;28;20039;-69
2023/08/19 05:15:12;;;;;;;19.08;11.95;;;21.60;99.90;;;;;;5091782;28;20035;-69
2023/08/19 05:18:16;;;;;;;19.60;12.50;;;21.90;99.90;;;;;;5079005;28;20051;-69
2023/08/19 05:25:02;;;;;;;18.70;10.70;;;26.20;99.90;;;;;;5078775;28;20051;-70
2023/08/19 05:28:25;;;;;;;18.23;11.18;;;28.40;99.90;;;;;;5091384;28;20039;-70
2023/08/19 05:34:52;;;;;;;13.18;10.25;;;30.50;99.90;;;;;;5091350;28;20051;-70
2023/08/19 05:41:37;;;;;;;18.67;10.40;;;30.30;99.90;;;;;;5091114;28;20039;-69
2023/08/19 05:44:41;;;;;;;15.73;10.15;;;30.20;99.90;;;;;;5090485;28;20039;-69
2023/08/19 05:51:27;;;;;;;11.82;8.98;;;30.10;99.90;;;;;;5090988;28;20505;-70
2023/08/19 05:54:32;;;;;;;12.52;9.20;;;31.30;99.90;;;;;;5091360;28;20049;-70
2023/08/19 05:58:13;;;;;;;15.43;9.57;;;32.70;99.90;;;;;;5091066;28;20498;-70
2023/08/19 06:01:17;;;;;;;16.08;9.50;;;33.70;99.90;;;;;;5090735;28;20047;-69
2023/08/19 06:04:21;;;;;;;15.63;9.23;;;31.60;99.90;;;;;;5090806;28;20074;-70
2023/08/19 06:07:26;;;;;;;16.23;9.57;;;30.90;99.90;;;;;;5090870;28;20031;-70
2023/08/19 06:10:31;;;;;;;17.02;10.02;;;32.10;99.90;;;;;;5078259;28;20137;-70
2023/08/19 06:13:36;;;;;;;18.65;9.68;;;32.20;99.90;;;;;;5090715;28;20115;-70
2023/08/19 06:16:41;;;;;;;10.63;8.23;;;32.20;99.90;;;;;;5090795;28;20075;-70
2023/08/19 06:19:45;;;;;;;11.05;8.15;;;33.40;99.50;;;;;;5090522;28;20378;-70
2023/08/19 06:23:08;;;;;;;14.40;8.35;;;34.40;98.50;;;;;;5090501;28;20043;-70
2023/08/19 06:29:34;;;;;;;11.45;8.15;;;36.10;95.80;;;;;;5090777;28;20262;-70
2023/08/19 06:32:38;;;;;;;10.02;7.78;;;36.20;95.10;;;;;;5090431;28;20039;-71
2023/08/19 06:35:48;;;;;;;11.52;7.25;;;36.20;94.90;;;;;;5090998;28;20162;-70
2023/08/19 06:42:51;;;;;;;7.97;7.00;;;36.60;93.90;;;;;;5089985;28;20059;-70
2023/08/19 06:45:56;;;;;;;22.80;7.13;;;37.30;93.30;;;;;;5090427;28;20047;-70
2023/08/19 06:49:01;;;;;;;11.75;6.40;;;37.20;92.60;;;;;;5090442;28;20047;-70
2023/08/19 06:52:05;;;;;;;8.57;6.78;;;37.30;92.20;;;;;;5090155;28;20032;-70
2023/08/19 06:55:09;;;;;;;7.60;6.82;;;36.90;92.30;;;;;;5091023;28;20047;-70
2023/08/19 06:58:22;;;;;;;9.88;7.30;;;33.40;94.90;;;;;;5094216;28;20051;-70
2023/08/19 07:01:30;;;;;;;9.15;6.70;;;33.00;95.30;;;;;;5093689;28;20051;-69
2023/08/19 07:04:53;;;;;;;10.20;6.78;;;33.60;95.50;;;;;;5093899;28;20043;-69
2023/08/19 07:08:01;;;;;;;10.98;5.78;;;34.80;94.60;;;;;;5094173;28;20382;-70
2023/08/19 07:14:29;;;;;;;8.10;5.97;;;37.50;92.00;;;;;;5094194;28;20039;-69
2023/08/19 07:17:34;;;;;;;9.07;5.47;;;38.30;91.30;;;;;;5093583;28;20047;-70
2023/08/19 07:20:38;;;;;;;7.55;5.10;;;38.60;90.50;;;;;;5081441;28;20494;-70
2023/08/19 07:23:47;;;;;;;9.90;5.32;;;39.20;88.70;;;;;;5093688;28;20490;-70
2023/08/19 07:26:51;;;;;;;10.05;4.85;;;39.30;86.60;;;;;;5093953;28;20035;-70
2023/08/19 07:29:57;;;;;;;10.10;4.63;;;39.60;86.10;;;;;;5093579;28;20047;-70
2023/08/19 07:33:04;;;;;;;8.25;5.22;;;39.40;84.90;;;;;;5093157;28;20039;-70
2023/08/19 07:36:08;;;;;;;14.27;5.05;;;39.10;86.00;;;;;;5093578;28;20051;-70
2023/08/19 07:39:12;;;;;;;10.02;5.53;;;38.40;85.80;;;;;;5093631;28;20079;-70
2023/08/19 07:42:15;;;;;;;8.35;5.43;;;37.70;88.70;;;;;;5093156;28;20047;-70
2023/08/19 07:45:19;;;;;;;7.95;5.60;;;36.70;89.30;;;;;;5092927;28;20403;-70
2023/08/19 07:48:43;;;;;;;11.10;6.05;;;37.00;89.80;;;;;;5093286;28;20031;-70
2023/08/19 07:51:47;;;;;;;14.70;6.05;;;36.00;89.10;;;;;;5093102;28;20466;-70
2023/08/19 07:54:51;;;;;;;8.35;5.70;;;36.50;89.70;;;;;;5093283;28;20055;-70
2023/08/19 07:57:55;;;;;;;11.73;5.78;;;38.20;87.80;;;;;;5092821;28;20497;-70
2023/08/19 08:00:59;;;;;;;9.32;5.53;;;36.20;87.10;;;;;;5092970;28;20043;-70
2023/08/19 08:04:04;;;;;;;8.70;5.47;;;37.40;88.10;;;;;;5092704;28;20043;-69
2023/08/19 08:07:08;;;;;;;7.80;5.93;;;38.00;88.00;;;;;;5091982;28;20402;-70
2023/08/19 08:10:12;;;;;;;10.73;5.65;;;39.20;87.40;;;;;;5092627;28;20059;-69
2023/08/19 08:13:16;;;;;;;10.77;5.50;;;37.30;88.40;;;;;;5092461;28;20054;-70
2023/08/19 08:16:20;;;;;;;9.70;5.40;;;38.20;88.90;;;;;;5091120;28;20055;-69
2023/08/19 08:19:27;;;;;;;9.93;5.38;;;38.50;87.10;;;;;;5092978;28;20501;-69
2023/08/19 08:22:32;;;;;;;11.88;5.75;;;39.10;86.20;;;;;;5095061;28;20039;-69
2023/08/19 08:25:37;;;;;;;5.95;5.00;;;38.00;86.80;;;;;;5092466;28;20039;-70
2023/08/19 08:29:00;;;;;;;14.18;5.43;;;38.30;85.00;;;;;;5092635;28;20509;-69
2023/08/19 08:32:05;;;;;;;10.52;5.15;;;38.20;83.40;;;;;;5092321;28;20047;-70
2023/08/19 08:35:09;;;;;;;6.22;4.70;;;40.80;82.50;;;;;;5092527;28;20059;-70
2023/08/19 08:38:31;;;;;;;9.35;4.53;;;42.20;80.60;;;;;;5092147;28;20047;-70
2023/08/19 08:41:39;;;;;;;10.32;4.47;;;42.50;80.10;;;;;;5092035;28;20051;-70
2023/08/19 08:45:21;;;;;;;7.07;4.60;;;42.80;78.90;;;;;;5091973;28;20523;-70
2023/08/19 08:48:29;;;;;;;9.00;4.93;;;42.60;78.20;;;;;;5092376;28;20276;-69
2023/08/19 08:55:33;;;;;;;6.70;4.57;;;40.60;79.50;;;;;;5092266;28;20031;-70
2023/08/19 08:58:38;;;;;;;10.13;4.57;;;43.40;77.30;;;;;;5091859;28;20390;-70
2023/08/19 09:01:43;;;;;;;8.32;5.15;;;44.70;74.70;;;;;;5091746;28;20067;-70
2023/08/19 09:05:07;;;;;;;8.18;4.13;;;42.60;72.80;;;;;;5091719;28;20043;-70
2023/08/19 09:08:14;;;;;;;8.63;4.22;;;44.10;72.30;;;;;;5091792;28;20441;-70
2023/08/19 09:11:45;;;;;;;7.57;4.40;;;45.40;71.10;;;;;;5091596;28;20043;-70
2023/08/19 09:14:56;;;;;;;7.47;3.80;;;46.40;69.90;;;;;;5091691;28;20489;-67
2023/08/19 09:18:01;;;;;;;7.05;3.42;;;47.50;68.20;;;;;;5091683;28;20046;-68
2023/08/19 09:21:06;;;;;;;11.55;4.18;;;46.10;65.90;;;;;;5078964;28;20418;-68
2023/08/19 09:24:16;;;;;;;6.53;3.60;;;46.80;66.80;;;;;;5091353;28;20050;-70
2023/08/19 09:27:57;;;;;;;6.97;3.97;;;47.70;66.30;;;;;;5091310;28;20521;-70
2023/08/19 09:31:21;;;;;;;5.35;4.07;;;46.20;65.90;;;;;;5090960;28;20039;-70
2023/08/19 09:34:25;;;;;;;6.53;3.90;;;45.10;66.90;;;;;;5091324;28;20043;-69
2023/08/19 09:37:31;;;;;;;8.88;4.50;;;46.20;65.80;;;;;;5091225;28;20043;-70
2023/08/19 09:41:13;;;;;;;9.90;5.35;;;43.90;66.10;;;;;;5091316;28;20043;-69
2023/08/19 09:44:40;;;;;;;7.40;3.80;;;43.20;66.60;;;;;;5091162;28;20036;-70
2023/08/19 09:47:52;;;;;;;7.20;4.10;;;45.10;67.50;;;;;;5091113;28;20047;-71
2023/08/19 09:51:14;;;;;;;10.43;4.38;;;42.50;66.90;;;;;;5091351;28;20281;-71
2023/08/19 09:54:18;;;;;;;7.78;4.50;;;40.50;66.80;;;;;;5090947;28;20510;-69
2023/08/19 09:57:41;;;;;;;10.32;3.80;;;40.30;66.60;;;;;;5090584;28;20051;-70
2023/08/19 10:00:46;;;;;;;8.10;3.78;;;44.30;66.00;;;;;;5091140;28;20047;-70
2023/08/19 10:03:50;;;;;;;8.77;3.60;;;44.60;65.60;;;;;;5078562;28;20047;-70
2023/08/19 10:07:15;;;;;;;9.48;3.50;;;46.00;65.50;;;;;;5090723;28;20043;-69
2023/08/19 10:10:21;;;;;;;7.85;3.97;;;47.20;64.10;;;;;;5091142;28;20055;-68
2023/08/19 10:13:26;;;;;;;8.02;3.78;;;47.10;64.20;;;;;;5090346;28;20403;-70
2023/08/19 10:16:50;;;;;;;5.28;3.17;;;48.60;62.60;;;;;;5091039;28;20043;-70
2023/08/19 10:20:10;;;;;;;6.20;3.50;;;48.70;61.00;;;;;;5090956;28;20039;-71
2023/08/19 10:23:16;;;;;;;5.97;3.10;;;50.30;60.40;;;;;;5090440;28;20047;-68
2023/08/19 10:26:21;;;;;;;10.73;3.60;;;52.10;59.60;;;;;;5090665;28;20063;-68
2023/08/19 10:29:25;;;;;;;8.48;3.95;;;48.80;59.00;;;;;;5090534;28;20043;-67
2023/08/19 10:32:30;;;;;;;9.02;3.03;;;46.10;59.70;;;;;;5094732;28;20055;-70
2023/08/19 10:36:04;;;;;;;12.20;4.43;;;47.20;61.30;;;;;;5094817;28;20038;-70
2023/08/19 10:39:16;;;;;;;6.15;3.10;;;48.70;60.60;;;;;;5094829;28;20498;-70
2023/08/19 10:42:26;;;;;;;7.55;3.35;;;46.40;60.60;;;;;;5094495;28;20119;-70
2023/08/19 10:45:34;;;;;;;6.25;3.45;;;48.60;60.10;;;;;;5094180;28;20127;-68
2023/08/19 10:52:26;;;;;;;9.32;3.47;;;51.90;58.70;;;;;;5094256;28;20047;-69
2023/08/19 10:55:55;;;;;;;6.57;2.72;;;52.90;56.90;;;;;;5094442;28;20047;-69
2023/08/19 10:59:20;;;;;;;7.90;2.70;;;54.00;56.00;;;;;;5093974;28;20059;-69
2023/08/19 11:02:26;;;;;;;4.95;2.50;;;54.40;54.60;;;;;;5093615;28;20067;-70
2023/08/19 11:05:32;;;;;;;5.63;2.78;;;54.50;54.50;;;;;;5094039;28;20039;-68
2023/08/19 11:08:59;;;;;;;7.13;2.90;;;51.20;53.40;;;;;;5093950;28;20031;-69
2023/08/19 11:12:04;;;;;;;6.90;2.72;;;46.30;55.70;;;;;;5093358;28;20111;-71
2023/08/19 11:15:27;;;;;;;5.72;2.63;;;46.20;57.40;;;;;;5093986;28;20039;-71
2023/08/19 11:18:32;;;;;;;7.80;2.47;;;48.30;56.70;;;;;;5094052;28;20051;-71
2023/08/19 11:21:55;;;;;;;3.42;2.10;;;49.60;55.70;;;;;;5093941;28;20055;-70
2023/08/19 11:24:59;;;;;;;5.20;2.42;;;51.00;54.50;;;;;;5093584;28;20050;-70
2023/08/19 11:28:04;;;;;;;3.88;2.30;;;49.10;53.00;;;;;;5093637;28;20046;-70
2023/08/19 11:34:30;;;;;;;7.65;2.38;;;49.30;53.90;;;;;;5093593;28;20051;-69
2023/08/19 11:37:52;;;;;;;4.63;2.05;;;50.50;52.30;;;;;;5093643;28;20383;-68
2023/08/19 11:40:56;;;;;;;8.15;2.05;;;51.10;52.40;;;;;;5080807;28;20043;-69
2023/08/19 11:44:05;;;;;;;4.97;2.08;;;52.70;50.50;;;;;;5092894;28;20039;-68
2023/08/19 11:47:11;;;;;;;4.72;2.13;;;51.10;50.80;;;;;;5093377;28;20055;-71
2023/08/19 11:50:16;;;;;;;7.50;2.08;;;51.90;50.20;;;;;;5092966;28;20039;-69
2023/08/19 11:53:28;;;;;;;7.93;2.20;;;52.50;50.40;;;;;;5092838;28;20501;-69
2023/08/19 11:56:49;;;;;;;4.22;1.67;;;52.30;50.80;;;;;;5093166;28;20395;-68
2023/08/19 11:59:58;;;;;;;6.38;2.00;;;53.30;49.30;;;;;;5092998;28;20054;-68
2023/08/19 12:03:03;;;;;;;3.50;1.60;;;53.30;49.30;;;;;;5092538;28;20051;-69
2023/08/19 12:06:07;;;;;;;5.10;2.28;;;53.30;50.60;;;;;;5080476;28;20043;-67
2023/08/19 12:09:11;;;;;;;5.55;2.08;;;52.60;50.20;;;;;;5093056;28;20047;-67
2023/08/19 12:12:16;;;;;;;5.47;2.40;;;52.00;50.00;;;;;;5092834;28;20039;-68
2023/08/19 12:15:20;;;;;;;5.05;2.00;;;51.20;50.70;;;;;;5092840;28;20054;-68
2023/08/19 12:18:24;;;;;;;10.73;2.15;;;51.60;50.60;;;;;;5092907;28;20055;-68
2023/08/19 12:21:29;;;;;;;9.52;2.20;;;50.80;50.60;;;;;;5092627;28;20055;-67
2023/08/19 12:24:33;;;;;;;10.27;3.47;;;48.90;51.80;;;;;;5079908;28;20043;-68
2023/08/19 12:27:38;;;;;;;7.03;2.50;;;48.70;51.90;;;;;;5092510;28;20043;-68
2023/08/19 12:30:42;;;;;;;5.90;2.72;;;49.00;52.00;;;;;;5092647;28;20578;-66
2023/08/19 12:33:46;;;;;;;6.63;2.55;;;49.10;51.40;;;;;;5092135;28;20306;-67
2023/08/19 12:36:51;;;;;;;4.85;2.55;;;49.50;51.70;;;;;;5079574;28;20514;-68
2023/08/19 12:39:55;;;;;;;5.85;2.60;;;49.50;51.60;;;;;;5092299;28;20066;-68
2023/08/19 12:42:59;;;;;;;6.20;2.63;;;50.10;51.70;;;;;;5092008;28;20051;-66
2023/08/19 12:46:07;;;;;;;13.40;2.88;;;49.70;52.10;;;;;;5092204;28;20394;-68
2023/08/19 12:49:13;;;;;;;4.35;2.63;;;49.90;51.80;;;;;;5092171;28;20051;-69
2023/08/19 12:52:18;;;;;;;7.97;2.95;;;50.10;51.00;;;;;;5092060;28;20046;-68
2023/08/19 12:55:25;;;;;;;5.85;2.55;;;50.00;51.00;;;;;;5091929;28;20051;-67
2023/08/19 12:58:29;;;;;;;6.20;3.30;;;50.30;50.70;;;;;;5091923;28;20486;-68
2023/08/19 13:01:33;;;;;;;5.75;2.95;;;50.30;51.20;;;;;;5091748;28;20075;-67
2023/08/19 13:04:38;;;;;;;6.18;2.95;;;50.20;51.00;;;;;;5091978;28;20394;-68
2023/08/19 13:07:43;;;;;;;4.97;2.88;;;50.10;51.20;;;;;;5091764;28;20039;-67
2023/08/19 13:10:47;;;;;;;7.65;3.10;;;49.70;51.20;;;;;;5091750;28;20486;-68
2023/08/19 13:13:53;;;;;;;6.35;2.97;;;48.90;51.70;;;;;;5091346;28;20044;-69
2023/08/19 13:16:59;;;;;;;8.40;3.05;;;48.90;51.60;;;;;;5078935;28;20039;-66
2023/08/19 13:20:06;;;;;;;11.20;3.13;;;48.50;52.40;;;;;;5079089;28;20043;-66
2023/08/19 13:23:10;;;;;;;8.90;3.15;;;47.90;52.90;;;;;;5091391;28;20043;-68
2023/08/19 13:26:14;;;;;;;8.60;3.25;;;47.40;53.00;;;;;;5091236;28;20047;-69
2023/08/19 13:29:20;;;;;;;12.10;3.60;;;45.90;53.60;;;;;;5091552;28;20489;-68
2023/08/19 13:32:24;;;;;;;7.50;3.33;;;45.30;55.00;;;;;;5078501;28;20395;-69
2023/08/19 13:35:28;;;;;;;9.70;3.85;;;45.10;55.80;;;;;;5091353;28;20059;-69
2023/08/19 13:38:33;;;;;;;10.25;4.03;;;44.80;56.60;;;;;;5091322;28;20047;-70
2023/08/19 13:41:37;;;;;;;8.75;4.30;;;44.30;57.00;;;;;;5091141;28;20047;-70
2023/08/19 13:44:41;;;;;;;6.35;4.20;;;44.30;57.40;;;;;;5078577;28;20051;-67
2023/08/19 13:47:45;;;;;;;7.72;4.50;;;43.90;56.90;;;;;;5091175;28;20047;-69
2023/08/19 13:50:49;;;;;;;12.27;4.60;;;43.90;57.50;;;;;;5091072;28;20039;-69
2023/08/19 13:53:53;;;;;;;7.65;4.22;;;43.80;57.60;;;;;;5090721;28;20043;-69
2023/08/19 13:56:57;;;;;;;8.50;4.20;;;43.80;57.30;;;;;;5090902;28;20039;-70
2023/08/19 14:00:14;;;;;;;8.05;4.03;;;43.80;57.10;;;;;;5090616;28;20046;-69
2023/08/19 14:03:18;;;;;;;7.35;4.30;;;43.90;57.00;;;;;;5090606;28;20035;-68
2023/08/19 14:06:22;;;;;;;6.82;4.20;;;44.00;57.40;;;;;;5065963;28;20039;-70
2023/08/19 14:09:26;;;;;;;7.70;3.70;;;44.00;56.90;;;;;;5090688;28;20047;-69
2023/08/19 14:12:30;;;;;;;11.80;4.88;;;43.90;57.20;;;;;;5090552;28;20047;-69
2023/08/19 14:15:35;;;;;;;9.52;4.30;;;43.50;57.30;;;;;;5090555;28;20099;-68
2023/08/19 14:18:39;;;;;;;13.30;4.60;;;43.00;58.60;;;;;;5090697;28;20051;-69
2023/08/19 14:21:43;;;;;;;9.05;4.60;;;42.60;57.50;;;;;;5090646;28;20063;-69
2023/08/19 14:24:47;;;;;;;10.45;4.28;;;42.30;57.40;;;;;;5090577;28;20505;-68
2023/08/19 14:27:52;;;;;;;5.65;3.70;;;42.30;57.30;;;;;;5091022;28;20055;-69
2023/08/19 14:30:56;;;;;;;9.02;4.20;;;42.60;57.90;;;;;;5091168;28;20043;-68
2023/08/19 14:34:01;;;;;;;8.43;3.95;;;42.50;58.40;;;;;;5078584;28;20099;-68
2023/08/19 14:37:07;;;;;;;11.32;4.55;;;41.80;58.70;;;;;;5055617;28;20481;-68
2023/08/19 14:40:12;;;;;;;15.70;3.97;;;41.50;58.40;;;;;;5091158;28;20051;-69
2023/08/19 14:43:16;;;;;;;8.93;3.97;;;41.00;58.00;;;;;;5089933;28;20047;-69
2023/08/19 14:46:20;;;;;;;8.57;3.88;;;40.70;58.40;;;;;;5053974;28;20036;-68
2023/08/19 14:49:25;;;;;;;11.13;4.75;;;40.70;58.30;;;;;;5083437;28;20039;-68
2023/08/19 14:52:29;;;;;;;9.70;4.65;;;40.70;59.20;;;;;;5090567;28;20047;-67
2023/08/19 14:55:33;;;;;;;10.65;4.72;;;40.60;60.50;;;;;;5090806;28;20394;-67
2023/08/19 14:58:37;;;;;;;9.40;4.43;;;40.50;60.40;;;;;;5090613;28;20059;-67
2023/08/19 15:01:42;;;;;;;8.10;4.30;;;40.40;60.50;;;;;;5090124;28;20058;-69
2023/08/19 15:04:46;;;;;;;11.10;4.82;;;40.30;60.10;;;;;;5090930;28;20070;-67
2023/08/19 15:07:50;;;;;;;7.53;4.40;;;40.20;59.30;;;;;;5090439;28;20044;-69
2023/08/19 15:10:54;;;;;;;8.73;4.25;;;39.70;59.10;;;;;;5090333;28;20043;-68
2023/08/19 15:13:58;;;;;;;10.63;3.75;;;39.40;59.10;;;;;;5090282;28;20067;-69
2023/08/19 15:17:02;;;;;;;8.80;4.30;;;39.50;59.00;;;;;;5092075;28;20043;-68
2023/08/19 15:20:07;;;;;;;7.15;4.05;;;39.40;59.20;;;;;;5093575;28;20051;-68
2023/08/19 15:23:11;;;;;;;10.10;4.13;;;39.40;59.50;;;;;;5091629;28;20051;-67
2023/08/19 15:26:16;;;;;;;11.48;4.72;;;39.10;59.20;;;;;;5092489;28;20066;-68
2023/08/19 15:29:20;;;;;;;9.23;4.50;;;38.70;59.70;;;;;;5093481;28;20399;-68
2023/08/19 15:32:26;;;;;;;7.07;4.38;;;38.70;60.20;;;;;;5093518;28;20047;-67
2023/08/19 15:35:30;;;;;;;9.90;4.97;;;38.60;60.50;;;;;;5093556;28;20047;-67
2023/08/19 15:38:35;;;;;;;7.75;4.30;;;38.60;61.00;;;;;;5080867;28;20063;-70
2023/08/19 15:41:38;;;;;;;10.60;4.63;;;38.40;60.70;;;;;;5086788;28;20043;-67
2023/08/19 15:44:42;;;;;;;7.57;4.70;;;38.20;61.00;;;;;;5093234;28;20047;-68
2023/08/19 15:47:47;;;;;;;6.88;4.70;;;38.10;61.30;;;;;;5093027;28;20050;-68
2023/08/19 15:50:51;;;;;;;8.32;4.90;;;37.90;61.30;;;;;;5093421;28;20114;-68
2023/08/19 15:53:55;;;;;;;9.00;4.25;;;37.60;61.80;;;;;;5089559;28;20375;-69
2023/08/19 15:56:59;;;;;;;11.52;4.80;;;37.50;61.90;;;;;;5072801;28;20056;-68
2023/08/19 16:00:05;;;;;;;13.73;4.85;;;37.40;60.90;;;;;;5072764;28;20059;-68
2023/08/19 16:03:10;;;;;;;12.60;4.55;;;37.20;60.30;;;;;;5072567;28;20502;-67
2023/08/19 16:06:14;;;;;;;8.18;4.30;;;37.10;61.00;;;;;;5072321;28;20047;-67
2023/08/19 16:09:19;;;;;;;10.05;4.32;;;36.90;61.60;;;;;;5073084;28;20449;-68
2023/08/19 16:12:23;;;;;;;7.00;4.40;;;36.90;61.30;;;;;;5072407;28;20039;-68
2023/08/19 16:15:27;;;;;;;6.97;4.22;;;36.90;62.00;;;;;;5072611;28;20403;-68
2023/08/19 16:18:33;;;;;;;6.35;4.00;;;36.80;62.20;;;;;;5072606;28;20043;-68
2023/08/19 16:21:38;;;;;;;17.33;4.78;;;36.70;61.60;;;;;;5072542;28;20039;-67
2023/08/19 16:24:42;;;;;;;8.85;4.32;;;36.60;62.40;;;;;;5072419;28;20068;-68
2023/08/19 16:27:46;;;;;;;13.98;5.13;;;36.50;62.60;;;;;;5071799;28;20055;-68
2023/08/19 16:30:52;;;;;;;12.32;4.65;;;36.40;62.10;;;;;;5059961;28;20060;-70
2023/08/19 16:33:56;;;;;;;11.07;4.30;;;36.20;62.40;;;;;;5072461;28;20032;-69
2023/08/19 16:37:00;;;;;;;10.65;4.80;;;36.10;62.50;;;;;;5071707;28;20043;-67
2023/08/19 16:40:05;;;;;;;9.32;4.32;;;36.00;63.10;;;;;;5072077;28;20047;-68
2023/08/19 16:43:09;;;;;;;14.07;5.40;;;35.90;63.60;;;;;;5071371;28;20051;-68
2023/08/19 16:46:13;;;;;;;7.88;4.45;;;35.80;63.20;;;;;;5073104;28;20072;-68
2023/08/19 16:49:17;;;;;;;9.85;4.95;;;35.60;63.50;;;;;;5091971;28;20047;-69
2023/08/19 16:52:22;;;;;;;8.82;4.38;;;35.50;63.70;;;;;;5091495;28;20048;-69
2023/08/19 16:55:27;;;;;;;9.35;4.60;;;35.50;64.00;;;;;;5092073;28;20055;-69
2023/08/19 16:58:31;;;;;;;12.05;5.10;;;35.30;64.40;;;;;;5091236;28;20043;-69
2023/08/19 17:01:35;;;;;;;9.82;4.82;;;35.20;64.90;;;;;;5092046;28;20082;-68
2023/08/19 17:04:44;;;;;;;8.57;4.40;;;34.90;65.30;;;;;;5091593;28;20410;-70
2023/08/19 17:07:48;;;;;;;6.20;4.57;;;34.90;66.00;;;;;;5091728;28;20051;-69
2023/08/19 17:10:52;;;;;;;15.57;5.38;;;34.80;66.30;;;;;;5091746;28;20055;-70
2023/08/19 17:13:57;;;;;;;10.10;4.70;;;34.70;66.70;;;;;;5091864;28;20047;-69
2023/08/19 17:17:01;;;;;;;7.47;4.55;;;34.50;67.10;;;;;;5091473;28;20054;-69
2023/08/19 17:20:06;;;;;;;11.48;4.85;;;34.40;67.40;;;;;;5091209;28;20043;-69
2023/08/19 17:23:10;;;;;;;7.45;4.70;;;34.20;68.00;;;;;;5091664;28;20043;-68
2023/08/19 17:26:14;;;;;;;16.25;5.53;;;34.10;68.40;;;;;;5091475;28;20043;-69